createdAt,value
2018-05-29T00:01:48.744Z,23.77
2018-05-29T00:02:48.807Z,23.77
2018-05-29T00:04:41.814Z,23.80
2018-05-29T00:05:41.881Z,23.74
2018-05-29T00:07:34.888Z,23.74
2018-05-29T00:08:34.951Z,23.65
2018-05-29T00:10:27.956Z,23.71
2018-05-29T00:11:28.027Z,23.68
2018-05-29T00:13:21.032Z,23.68
2018-05-29T00:14:21.094Z,23.73
2018-05-29T00:16:14.091Z,23.61
2018-05-29T00:17:14.160Z,23.59
2018-05-29T00:19:07.167Z,23.54
2018-05-29T00:20:07.231Z,23.63
2018-05-29T00:22:00.237Z,23.65
2018-05-29T00:23:00.299Z,23.69
2018-05-29T00:24:53.306Z,23.66
2018-05-29T00:25:53.373Z,23.55
2018-05-29T00:27:46.380Z,23.56
2018-05-29T00:28:46.444Z,23.51
2018-05-29T00:30:39.441Z,23.61
2018-05-29T00:31:39.510Z,23.55
2018-05-29T00:33:33.029Z,23.65
2018-05-29T00:34:33.085Z,23.55
2018-05-29T00:36:26.086Z,23.48
2018-05-29T00:37:26.156Z,23.40
2018-05-29T00:39:19.167Z,23.48
2018-05-29T00:40:19.235Z,23.47
2018-05-29T00:42:12.234Z,23.41
2018-05-29T00:43:12.296Z,23.40
2018-05-29T00:45:05.297Z,23.40
2018-05-29T00:46:05.377Z,23.41
2018-05-29T00:47:58.369Z,23.31
2018-05-29T00:48:58.432Z,23.28
2018-05-29T00:50:51.433Z,23.28
2018-05-29T00:51:51.501Z,23.31
2018-05-29T00:53:44.506Z,23.39
2018-05-29T00:54:44.568Z,23.36
2018-05-29T00:56:37.572Z,23.34
2018-05-29T00:57:37.637Z,23.28
2018-05-29T00:59:30.649Z,23.13
2018-05-29T01:00:30.710Z,23.18
2018-05-29T01:02:23.720Z,23.17
2018-05-29T01:03:23.783Z,23.15
2018-05-29T01:05:16.787Z,23.21
2018-05-29T01:06:16.850Z,23.18
2018-05-29T01:08:09.856Z,23.10
2018-05-29T01:09:09.921Z,23.08
2018-05-29T01:11:02.935Z,23.05
2018-05-29T01:12:02.986Z,23.00
2018-05-29T01:13:56.006Z,23.02
2018-05-29T01:14:56.070Z,22.88
2018-05-29T01:16:49.074Z,23.03
2018-05-29T01:17:49.140Z,22.98
2018-05-29T01:19:42.144Z,22.94
2018-05-29T01:20:42.208Z,22.94
2018-05-29T01:22:35.226Z,22.90
2018-05-29T01:23:35.288Z,22.94
2018-05-29T01:25:28.286Z,22.91
2018-05-29T01:26:28.349Z,22.94
2018-05-29T01:28:21.357Z,22.91
2018-05-29T01:29:21.420Z,22.91
2018-05-29T01:31:14.427Z,22.94
2018-05-29T01:32:14.489Z,22.94
2018-05-29T01:34:07.999Z,22.75
2018-05-29T01:35:08.062Z,22.73
2018-05-29T01:37:01.067Z,22.84
2018-05-29T01:38:01.141Z,22.81
2018-05-29T01:39:54.139Z,22.87
2018-05-29T01:40:54.202Z,22.91
2018-05-29T01:42:47.207Z,22.88
2018-05-29T01:43:47.270Z,22.85
2018-05-29T01:45:40.279Z,22.78
2018-05-29T01:46:40.342Z,22.76
2018-05-29T01:48:33.350Z,22.72
2018-05-29T01:49:33.410Z,22.75
2018-05-29T01:51:26.411Z,22.75
2018-05-29T01:52:26.475Z,22.76
2018-05-29T01:54:19.484Z,22.75
2018-05-29T01:55:19.545Z,22.76
2018-05-29T01:57:12.543Z,22.75
2018-05-29T01:58:12.611Z,22.69
2018-05-29T02:00:05.616Z,22.69
2018-05-29T02:01:05.678Z,22.62
2018-05-29T02:02:58.686Z,22.62
2018-05-29T02:03:58.749Z,22.57
2018-05-29T02:05:51.745Z,22.57
2018-05-29T02:06:51.848Z,22.62
2018-05-29T02:08:44.816Z,22.59
2018-05-29T02:09:44.875Z,22.57
2018-05-29T02:11:37.880Z,22.55
2018-05-29T02:12:37.945Z,22.54
2018-05-29T02:14:30.954Z,22.45
2018-05-29T02:15:31.015Z,22.51
2018-05-29T02:17:24.024Z,22.50
2018-05-29T02:18:24.088Z,22.53
2018-05-29T02:20:17.093Z,22.44
2018-05-29T02:21:17.155Z,22.43
2018-05-29T02:23:10.157Z,22.48
2018-05-29T02:24:10.219Z,22.45
2018-05-29T02:26:03.222Z,22.51
2018-05-29T02:27:03.285Z,22.41
2018-05-29T02:28:56.292Z,22.39
2018-05-29T02:29:56.354Z,22.36
2018-05-29T02:31:49.352Z,22.28
2018-05-29T02:32:49.417Z,22.36
2018-05-29T02:34:42.424Z,22.33
2018-05-29T02:35:42.487Z,22.32
2018-05-29T02:37:35.489Z,22.35
2018-05-29T02:38:35.557Z,22.22
2018-05-29T02:40:28.561Z,22.17
2018-05-29T02:41:28.619Z,22.22
2018-05-29T02:43:21.624Z,22.22
2018-05-29T02:44:21.687Z,22.23
2018-05-29T02:46:14.693Z,22.14
2018-05-29T02:47:14.756Z,22.14
2018-05-29T02:49:07.773Z,22.11
2018-05-29T02:50:07.829Z,22.10
2018-05-29T02:52:00.825Z,22.08
2018-05-29T02:53:00.891Z,22.10
2018-05-29T02:54:53.900Z,22.02
2018-05-29T02:55:53.958Z,21.98
2018-05-29T02:57:46.982Z,22.04
2018-05-29T02:58:47.047Z,21.92
2018-05-29T03:00:40.051Z,22.04
2018-05-29T03:01:40.113Z,22.08
2018-05-29T03:03:33.122Z,22.04
2018-05-29T03:04:33.183Z,22.06
2018-05-29T03:06:26.185Z,21.92
2018-05-29T03:07:26.254Z,21.91
2018-05-29T03:09:19.256Z,21.98
2018-05-29T03:10:19.316Z,21.92
2018-05-29T03:12:12.316Z,21.89
2018-05-29T03:13:12.383Z,21.98
2018-05-29T03:15:05.385Z,21.79
2018-05-29T03:16:05.447Z,21.83
2018-05-29T03:17:58.442Z,21.76
2018-05-29T03:18:58.511Z,21.83
2018-05-29T03:20:51.547Z,21.75
2018-05-29T03:21:51.574Z,21.72
2018-05-29T03:23:44.581Z,21.62
2018-05-29T03:24:44.641Z,21.64
2018-05-29T03:26:37.638Z,21.54
2018-05-29T03:27:37.721Z,21.62
2018-05-29T03:29:30.727Z,21.66
2018-05-29T03:30:30.777Z,21.64
2018-05-29T03:32:23.784Z,21.60
2018-05-29T03:33:23.845Z,21.54
2018-05-29T03:35:16.853Z,21.54
2018-05-29T03:36:16.912Z,21.55
2018-05-29T03:38:09.913Z,21.50
2018-05-29T03:39:09.980Z,21.61
2018-05-29T03:41:02.989Z,21.64
2018-05-29T03:42:03.049Z,21.69
2018-05-29T03:43:56.063Z,21.72
2018-05-29T03:44:56.114Z,21.70
2018-05-29T03:46:49.111Z,21.69
2018-05-29T03:47:49.177Z,21.69
2018-05-29T03:49:42.182Z,21.67
2018-05-29T03:50:42.242Z,21.70
2018-05-29T03:52:35.240Z,21.66
2018-05-29T03:53:35.305Z,21.67
2018-05-29T03:55:28.317Z,21.72
2018-05-29T03:56:28.382Z,21.75
2018-05-29T03:58:21.377Z,21.75
2018-05-29T03:59:21.445Z,21.80
2018-05-29T04:01:14.450Z,21.77
2018-05-29T04:02:14.510Z,21.73
2018-05-29T04:04:07.514Z,21.77
2018-05-29T04:05:07.575Z,21.76
2018-05-29T04:07:00.575Z,21.77
2018-05-29T04:08:00.640Z,21.80
2018-05-29T04:09:53.694Z,21.76
2018-05-29T04:10:53.708Z,21.85
2018-05-29T04:12:46.715Z,21.91
2018-05-29T04:13:46.784Z,21.91
2018-05-29T04:15:39.792Z,21.98
2018-05-29T04:16:39.852Z,21.93
2018-05-29T04:18:32.849Z,21.96
2018-05-29T04:19:32.916Z,21.98
2018-05-29T04:21:25.919Z,21.99
2018-05-29T04:22:25.978Z,22.04
2018-05-29T04:24:18.991Z,21.95
2018-05-29T04:25:19.046Z,21.89
2018-05-29T04:27:12.043Z,21.89
2018-05-29T04:28:12.110Z,21.99
2018-05-29T04:30:05.112Z,22.02
2018-05-29T04:31:05.174Z,22.00
2018-05-29T04:32:58.176Z,22.02
2018-05-29T04:33:58.242Z,21.92
2018-05-29T04:35:51.247Z,22.00
2018-05-29T04:36:51.308Z,21.91
2018-05-29T04:38:44.307Z,22.00
2018-05-29T04:39:44.374Z,21.96
2018-05-29T04:41:37.377Z,22.00
2018-05-29T04:42:37.440Z,22.10
2018-05-29T04:44:30.448Z,22.00
2018-05-29T04:45:30.509Z,22.15
2018-05-29T04:47:23.507Z,22.14
2018-05-29T04:48:23.578Z,22.14
2018-05-29T04:50:16.579Z,22.20
2018-05-29T04:51:16.655Z,22.13
2018-05-29T04:53:09.636Z,22.15
2018-05-29T04:54:09.703Z,22.22
2018-05-29T04:56:02.712Z,22.30
2018-05-29T04:57:02.774Z,22.28
2018-05-29T04:58:55.768Z,22.29
2018-05-29T04:59:55.833Z,22.32
2018-05-29T05:01:48.846Z,22.30
2018-05-29T05:02:48.906Z,22.36
2018-05-29T05:04:41.915Z,22.44
2018-05-29T05:05:41.978Z,22.45
2018-05-29T05:07:34.975Z,22.39
2018-05-29T05:08:35.042Z,22.45
2018-05-29T05:10:28.046Z,22.55
2018-05-29T05:11:28.108Z,22.60
2018-05-29T05:13:21.109Z,22.53
2018-05-29T05:14:21.171Z,22.59
2018-05-29T05:16:14.176Z,22.60
2018-05-29T05:17:14.240Z,22.59
2018-05-29T05:19:07.239Z,22.53
2018-05-29T05:20:07.313Z,22.68
2018-05-29T05:22:00.309Z,22.66
2018-05-29T05:23:00.371Z,22.75
2018-05-29T05:24:53.375Z,22.78
2018-05-29T05:25:53.436Z,22.80
2018-05-29T05:27:46.432Z,22.83
2018-05-29T05:28:46.500Z,22.85
2018-05-29T05:30:39.509Z,22.94
2018-05-29T05:31:39.566Z,22.94
2018-05-29T05:33:33.077Z,23.05
2018-05-29T05:34:33.139Z,23.02
2018-05-29T05:36:26.151Z,22.99
2018-05-29T05:37:26.213Z,23.08
2018-05-29T05:39:19.218Z,23.25
2018-05-29T05:40:19.277Z,23.25
2018-05-29T05:42:12.286Z,23.34
2018-05-29T05:43:12.348Z,23.28
2018-05-29T05:45:05.360Z,23.34
2018-05-29T05:46:05.460Z,23.41
2018-05-29T05:47:58.415Z,23.50
2018-05-29T05:48:58.485Z,23.55
2018-05-29T05:50:51.491Z,23.58
2018-05-29T05:51:51.551Z,23.63
2018-05-29T05:53:44.555Z,23.74
2018-05-29T05:54:44.618Z,23.77
2018-05-29T05:56:37.624Z,23.92
2018-05-29T05:57:37.684Z,24.01
2018-05-29T05:59:30.695Z,24.14
2018-05-29T06:00:30.762Z,24.21
2018-05-29T06:02:23.768Z,24.53
2018-05-29T06:03:23.850Z,24.54
2018-05-29T06:05:16.867Z,24.69
2018-05-29T06:06:16.893Z,24.80
2018-05-29T06:08:09.894Z,25.06
2018-05-29T06:09:09.962Z,25.21
2018-05-29T06:11:02.971Z,25.62
2018-05-29T06:12:03.032Z,25.87
2018-05-29T06:13:56.041Z,26.89
2018-05-29T06:14:56.106Z,27.96
2018-05-29T06:16:49.115Z,29.56
2018-05-29T06:17:49.179Z,30.21
2018-05-29T06:19:42.185Z,31.28
2018-05-29T06:20:42.249Z,31.52
2018-05-29T06:22:35.283Z,31.22
2018-05-29T06:23:35.346Z,31.42
2018-05-29T06:25:28.360Z,31.52
2018-05-29T06:26:28.427Z,31.58
2018-05-29T06:28:21.435Z,31.84
2018-05-29T06:29:21.505Z,31.80
2018-05-29T06:31:14.519Z,32.52
2018-05-29T06:32:14.584Z,32.68
2018-05-29T06:34:08.112Z,32.38
2018-05-29T06:35:08.179Z,32.95
2018-05-29T06:37:01.201Z,33.50
2018-05-29T06:38:01.264Z,33.84
2018-05-29T06:39:54.277Z,33.49
2018-05-29T06:40:54.351Z,33.65
2018-05-29T06:42:47.371Z,33.17
2018-05-29T06:43:47.439Z,33.79
2018-05-29T06:45:40.461Z,34.50
2018-05-29T06:46:40.537Z,34.38
2018-05-29T06:48:33.552Z,35.04
2018-05-29T06:49:33.629Z,35.37
2018-05-29T06:51:26.648Z,35.45
2018-05-29T06:52:26.717Z,35.46
2018-05-29T06:54:19.735Z,35.55
2018-05-29T06:55:19.814Z,35.79
2018-05-29T06:57:12.836Z,36.39
2018-05-29T06:58:12.906Z,36.33
2018-05-29T07:00:05.924Z,36.24
2018-05-29T07:01:06.007Z,36.61
2018-05-29T07:02:59.022Z,36.93
2018-05-29T07:03:59.108Z,36.86
2018-05-29T07:05:52.123Z,36.36
2018-05-29T07:06:52.194Z,36.39
2018-05-29T07:08:45.213Z,35.68
2018-05-29T07:09:45.293Z,35.63
2018-05-29T07:11:38.817Z,35.18
2018-05-29T07:12:38.887Z,35.70
2018-05-29T07:14:31.920Z,36.52
2018-05-29T07:15:31.989Z,36.99
2018-05-29T07:17:25.012Z,36.81
2018-05-29T07:18:25.085Z,36.98
2018-05-29T07:20:18.106Z,36.84
2018-05-29T07:21:18.188Z,36.27
2018-05-29T07:23:11.214Z,35.88
2018-05-29T07:24:11.286Z,36.46
2018-05-29T07:26:04.308Z,36.79
2018-05-29T07:27:04.386Z,37.13
2018-05-29T07:28:57.424Z,37.07
2018-05-29T07:29:57.483Z,37.20
2018-05-29T07:31:50.513Z,37.75
2018-05-29T07:32:50.586Z,37.75
2018-05-29T07:34:44.117Z,38.43
2018-05-29T07:35:44.197Z,38.60
2018-05-29T07:37:37.224Z,38.67
2018-05-29T07:38:37.294Z,39.02
2018-05-29T07:40:30.326Z,38.95
2018-05-29T07:41:30.407Z,37.87
2018-05-29T07:43:23.445Z,38.57
2018-05-29T07:44:23.512Z,38.23
2018-05-29T07:46:16.548Z,38.62
2018-05-29T07:47:16.622Z,38.48
2018-05-29T07:49:09.647Z,37.21
2018-05-29T07:50:09.726Z,37.18
2018-05-29T07:52:02.832Z,37.56
2018-05-29T07:53:02.844Z,37.80
2018-05-29T07:54:55.867Z,38.46
2018-05-29T07:55:55.953Z,38.42
2018-05-29T07:57:48.979Z,37.63
2018-05-29T07:58:49.107Z,37.02
2018-05-29T08:00:42.083Z,37.18
2018-05-29T08:01:42.164Z,37.97
2018-05-29T08:03:35.213Z,38.99
2018-05-29T08:04:35.280Z,39.44
2018-05-29T08:06:28.368Z,39.86
2018-05-29T08:07:28.391Z,40.02
2018-05-29T08:09:21.419Z,39.99
2018-05-29T08:10:21.499Z,39.90
2018-05-29T08:12:14.539Z,39.24
2018-05-29T08:13:14.613Z,39.40
2018-05-29T08:15:07.639Z,39.09
2018-05-29T08:16:07.720Z,38.92
2018-05-29T08:18:00.758Z,38.31
2018-05-29T08:19:00.833Z,37.55
2018-05-29T08:20:53.859Z,38.17
2018-05-29T08:21:53.944Z,38.83
2018-05-29T08:23:46.979Z,39.21
2018-05-29T08:24:47.056Z,38.54
2018-05-29T08:26:40.092Z,37.58
2018-05-29T08:27:40.171Z,37.35
2018-05-29T08:29:33.193Z,37.32
2018-05-29T08:30:33.280Z,38.01
2018-05-29T08:32:26.315Z,39.18
2018-05-29T08:33:26.388Z,39.94
2018-05-29T08:35:19.418Z,40.46
2018-05-29T08:36:19.501Z,40.84
2018-05-29T08:38:12.534Z,41.57
2018-05-29T08:39:12.610Z,41.82
2018-05-29T08:41:05.641Z,41.71
2018-05-29T08:42:05.724Z,41.37
2018-05-29T08:43:58.773Z,41.91
2018-05-29T08:44:58.843Z,41.63
2018-05-29T08:46:51.881Z,42.09
2018-05-29T08:47:51.964Z,42.25
2018-05-29T08:49:44.992Z,41.92
2018-05-29T08:50:45.074Z,41.50
2018-05-29T08:52:38.112Z,41.37
2018-05-29T08:53:38.192Z,40.85
2018-05-29T08:55:31.229Z,39.43
2018-05-29T08:56:31.312Z,39.43
2018-05-29T08:58:24.350Z,37.84
2018-05-29T08:59:24.433Z,38.30
2018-05-29T09:01:17.468Z,39.12
2018-05-29T09:02:17.554Z,38.48
2018-05-29T09:04:10.639Z,39.30
2018-05-29T09:05:10.670Z,39.78
2018-05-29T09:07:03.711Z,40.99
2018-05-29T09:08:03.788Z,41.07
2018-05-29T09:09:56.820Z,41.50
2018-05-29T09:10:56.911Z,41.90
2018-05-29T09:12:49.953Z,42.26
2018-05-29T09:13:50.030Z,42.45
2018-05-29T09:15:43.066Z,42.55
2018-05-29T09:16:43.156Z,42.66
2018-05-29T09:18:36.192Z,40.43
2018-05-29T09:19:36.272Z,40.99
2018-05-29T09:21:29.313Z,41.43
2018-05-29T09:22:29.388Z,41.66
2018-05-29T09:24:22.436Z,41.97
2018-05-29T09:25:22.509Z,42.17
2018-05-29T09:27:15.555Z,42.47
2018-05-29T09:28:15.631Z,42.04
2018-05-29T09:30:08.670Z,40.41
2018-05-29T09:31:08.750Z,39.63
2018-05-29T09:33:01.792Z,37.17
2018-05-29T09:34:01.863Z,36.14
2018-05-29T09:35:54.890Z,35.46
2018-05-29T09:36:54.972Z,35.10
2018-05-29T09:38:48.004Z,35.04
2018-05-29T09:39:48.082Z,34.83
2018-05-29T09:41:41.113Z,34.88
2018-05-29T09:42:41.187Z,34.86
2018-05-29T09:44:34.215Z,34.90
2018-05-29T09:45:34.287Z,35.00
2018-05-29T09:47:27.315Z,35.22
2018-05-29T09:48:27.388Z,35.22
2018-05-29T09:50:20.410Z,34.71
2018-05-29T09:51:20.492Z,34.18
2018-05-29T09:53:13.517Z,33.62
2018-05-29T09:54:13.586Z,33.77
2018-05-29T09:56:06.604Z,33.77
2018-05-29T09:57:06.683Z,33.53
2018-05-29T09:58:59.707Z,33.76
2018-05-29T09:59:59.776Z,34.10
2018-05-29T10:01:52.807Z,34.14
2018-05-29T10:02:52.872Z,33.94
2018-05-29T10:04:45.899Z,33.86
2018-05-29T10:05:45.968Z,33.52
2018-05-29T10:07:38.992Z,33.05
2018-05-29T10:08:39.062Z,32.90
2018-05-29T10:10:32.078Z,33.02
2018-05-29T10:11:32.157Z,33.14
2018-05-29T10:13:25.189Z,33.05
2018-05-29T10:14:25.251Z,32.97
2018-05-29T10:16:18.269Z,33.20
2018-05-29T10:17:18.343Z,33.40
2018-05-29T10:19:11.374Z,33.08
2018-05-29T10:20:11.438Z,33.19
2018-05-29T10:22:04.455Z,33.30
2018-05-29T10:23:04.526Z,33.36
2018-05-29T10:24:57.557Z,32.83
2018-05-29T10:25:57.625Z,32.97
2018-05-29T10:27:50.644Z,33.24
2018-05-29T10:28:50.713Z,33.39
2018-05-29T10:30:43.732Z,33.73
2018-05-29T10:31:43.803Z,33.79
2018-05-29T10:33:36.825Z,33.81
2018-05-29T10:34:36.896Z,33.59
2018-05-29T10:36:29.907Z,33.59
2018-05-29T10:37:29.981Z,33.64
2018-05-29T10:39:23.007Z,33.52
2018-05-29T10:40:23.070Z,33.39
2018-05-29T10:42:16.084Z,33.07
2018-05-29T10:43:16.159Z,33.24
2018-05-29T10:45:09.178Z,33.30
2018-05-29T10:46:09.244Z,33.08
2018-05-29T10:48:02.278Z,33.20
2018-05-29T10:49:02.339Z,33.30
2018-05-29T10:50:55.351Z,33.53
2018-05-29T10:51:55.421Z,33.37
2018-05-29T10:53:48.446Z,33.22
2018-05-29T10:54:48.515Z,33.37
2018-05-29T10:56:41.530Z,33.37
2018-05-29T10:57:41.603Z,33.34
2018-05-29T10:59:34.624Z,33.34
2018-05-29T11:00:34.692Z,33.31
2018-05-29T11:02:27.706Z,33.24
2018-05-29T11:03:27.781Z,33.19
2018-05-29T11:05:20.798Z,32.95
2018-05-29T11:06:20.867Z,33.19
2018-05-29T11:08:13.890Z,33.31
2018-05-29T11:09:13.960Z,33.39
2018-05-29T11:11:06.973Z,33.32
2018-05-29T11:12:07.048Z,33.34
2018-05-29T11:14:00.072Z,32.93
2018-05-29T11:15:00.139Z,33.02
2018-05-29T11:16:53.655Z,32.96
2018-05-29T11:17:53.728Z,33.09
2018-05-29T11:19:46.752Z,33.24
2018-05-29T11:20:46.821Z,33.37
2018-05-29T11:22:39.830Z,33.07
2018-05-29T11:23:39.904Z,33.07
2018-05-29T11:25:32.925Z,32.71
2018-05-29T11:26:32.992Z,32.73
2018-05-29T11:28:26.015Z,32.83
2018-05-29T11:29:26.082Z,33.04
2018-05-29T11:31:19.154Z,33.27
2018-05-29T11:32:19.171Z,33.31
2018-05-29T11:34:12.707Z,33.20
2018-05-29T11:35:12.762Z,32.95
2018-05-29T11:37:05.778Z,32.97
2018-05-29T11:38:05.850Z,33.17
2018-05-29T11:39:58.875Z,33.14
2018-05-29T11:40:58.944Z,32.90
2018-05-29T11:42:51.958Z,32.38
2018-05-29T11:43:52.059Z,32.18
2018-05-29T11:45:45.050Z,32.16
2018-05-29T11:46:45.116Z,32.14
2018-05-29T11:48:38.176Z,32.14
2018-05-29T11:49:38.204Z,32.04
2018-05-29T11:51:31.219Z,32.11
2018-05-29T11:52:31.289Z,32.30
2018-05-29T11:54:24.306Z,32.40
2018-05-29T11:55:24.374Z,32.22
2018-05-29T11:57:17.391Z,32.00
2018-05-29T11:58:17.460Z,32.01
2018-05-29T12:00:10.480Z,32.16
2018-05-29T12:01:10.551Z,32.38
2018-05-29T12:03:03.559Z,32.67
2018-05-29T12:04:03.630Z,32.67
2018-05-29T12:05:56.647Z,32.60
2018-05-29T12:06:56.714Z,32.55
2018-05-29T12:08:49.725Z,32.29
2018-05-29T12:09:49.800Z,32.14
2018-05-29T12:11:42.820Z,32.12
2018-05-29T12:12:42.890Z,32.16
2018-05-29T12:14:35.910Z,32.00
2018-05-29T12:15:35.976Z,32.12
2018-05-29T12:17:28.998Z,32.18
2018-05-29T12:18:29.070Z,32.09
2018-05-29T12:20:22.095Z,32.00
2018-05-29T12:21:22.156Z,31.87
2018-05-29T12:23:15.168Z,31.80
2018-05-29T12:24:15.243Z,31.97
2018-05-29T12:26:08.261Z,32.27
2018-05-29T12:27:08.326Z,32.38
2018-05-29T12:29:01.339Z,32.36
2018-05-29T12:30:01.411Z,32.34
2018-05-29T12:31:54.439Z,32.31
2018-05-29T12:32:54.505Z,32.27
2018-05-29T12:34:48.028Z,32.36
2018-05-29T12:35:48.100Z,32.31
2018-05-29T12:37:41.123Z,32.19
2018-05-29T12:38:41.190Z,32.22
2018-05-29T12:40:34.210Z,32.07
2018-05-29T12:41:34.273Z,32.11
2018-05-29T12:43:27.284Z,31.99
2018-05-29T12:44:27.364Z,32.07
2018-05-29T12:46:20.436Z,32.07
2018-05-29T12:47:20.439Z,32.12
2018-05-29T12:49:13.451Z,31.99
2018-05-29T12:50:13.525Z,32.00
2018-05-29T12:52:06.544Z,31.97
2018-05-29T12:53:06.614Z,32.00
2018-05-29T12:54:59.627Z,32.21
2018-05-29T12:55:59.697Z,32.19
2018-05-29T12:57:52.714Z,32.14
2018-05-29T12:58:52.809Z,32.18
2018-05-29T13:00:45.804Z,32.16
2018-05-29T13:01:45.895Z,32.14
2018-05-29T13:03:38.883Z,32.23
2018-05-29T13:04:38.955Z,32.22
2018-05-29T13:06:31.975Z,31.89
2018-05-29T13:07:32.041Z,31.78
2018-05-29T13:09:25.060Z,31.93
2018-05-29T13:10:25.135Z,31.99
2018-05-29T13:12:18.160Z,31.97
2018-05-29T13:13:18.226Z,32.08
2018-05-29T13:15:11.287Z,32.31
2018-05-29T13:16:11.308Z,32.45
2018-05-29T13:18:04.331Z,32.29
2018-05-29T13:19:04.398Z,32.38
2018-05-29T13:20:57.434Z,32.41
2018-05-29T13:21:57.499Z,32.56
2018-05-29T13:23:50.514Z,32.56
2018-05-29T13:24:50.589Z,32.31
2018-05-29T13:26:43.607Z,32.56
2018-05-29T13:27:43.712Z,32.48
2018-05-29T13:29:36.689Z,32.65
2018-05-29T13:30:36.762Z,32.63
2018-05-29T13:32:29.787Z,32.59
2018-05-29T13:33:29.850Z,32.41
2018-05-29T13:35:22.863Z,32.52
2018-05-29T13:36:22.930Z,32.51
2018-05-29T13:38:15.974Z,32.40
2018-05-29T13:39:16.046Z,32.27
2018-05-29T13:41:09.056Z,32.12
2018-05-29T13:42:09.124Z,32.15
2018-05-29T13:44:02.133Z,32.14
2018-05-29T13:45:02.206Z,32.08
2018-05-29T13:46:55.222Z,32.11
2018-05-29T13:47:55.292Z,32.00
2018-05-29T13:49:48.306Z,32.08
2018-05-29T13:50:48.382Z,32.07
2018-05-29T13:52:41.402Z,32.16
2018-05-29T13:53:41.468Z,31.99
2018-05-29T13:55:34.479Z,32.09
2018-05-29T13:56:34.589Z,32.01
2018-05-29T13:58:27.571Z,31.92
2018-05-29T13:59:27.638Z,31.70
2018-05-29T14:01:20.654Z,31.51
2018-05-29T14:02:20.719Z,31.36
2018-05-29T14:04:13.737Z,31.31
2018-05-29T14:05:13.806Z,31.27
2018-05-29T14:07:06.829Z,31.34
2018-05-29T14:08:06.897Z,31.34
2018-05-29T14:09:59.910Z,31.33
2018-05-29T14:10:59.981Z,31.18
2018-05-29T14:12:53.003Z,31.14
2018-05-29T14:13:53.069Z,31.10
2018-05-29T14:15:46.085Z,31.15
2018-05-29T14:16:46.156Z,31.09
2018-05-29T14:18:39.172Z,31.09
2018-05-29T14:19:39.239Z,31.14
2018-05-29T14:21:32.254Z,31.03
2018-05-29T14:22:32.320Z,30.97
2018-05-29T14:24:25.330Z,30.85
2018-05-29T14:25:25.402Z,30.88
2018-05-29T14:27:18.423Z,30.84
2018-05-29T14:28:18.491Z,30.72
2018-05-29T14:30:11.505Z,30.69
2018-05-29T14:31:11.574Z,30.55
2018-05-29T14:33:04.596Z,30.65
2018-05-29T14:34:04.662Z,30.59
2018-05-29T14:35:57.686Z,30.59
2018-05-29T14:36:57.737Z,30.54
2018-05-29T14:38:50.755Z,30.48
2018-05-29T14:39:50.819Z,30.46
2018-05-29T14:41:43.846Z,30.46
2018-05-29T14:42:43.905Z,30.44
2018-05-29T14:44:36.921Z,30.31
2018-05-29T14:45:36.990Z,30.27
2018-05-29T14:47:30.002Z,30.27
2018-05-29T14:48:30.067Z,30.18
2018-05-29T14:50:23.086Z,30.13
2018-05-29T14:51:23.161Z,30.10
2018-05-29T14:53:16.188Z,30.10
2018-05-29T14:54:16.255Z,30.06
2018-05-29T14:56:09.263Z,29.97
2018-05-29T14:57:09.345Z,30.06
2018-05-29T14:59:02.352Z,29.91
2018-05-29T15:00:02.416Z,29.93
2018-05-29T15:01:55.443Z,29.75
2018-05-29T15:02:55.498Z,29.81
2018-05-29T15:04:48.515Z,29.72
2018-05-29T15:05:48.597Z,29.72
2018-05-29T15:07:41.609Z,29.79
2018-05-29T15:08:41.668Z,29.79
2018-05-29T15:10:34.679Z,29.69
2018-05-29T15:11:34.748Z,29.69
2018-05-29T15:13:27.772Z,29.60
2018-05-29T15:14:27.830Z,29.53
2018-05-29T15:16:21.346Z,29.57
2018-05-29T15:17:21.415Z,29.56
2018-05-29T15:19:14.434Z,29.49
2018-05-29T15:20:14.497Z,29.49
2018-05-29T15:22:07.512Z,29.51
2018-05-29T15:23:07.577Z,29.45
2018-05-29T15:25:00.629Z,29.44
2018-05-29T15:26:00.656Z,29.35
2018-05-29T15:27:53.673Z,29.29
2018-05-29T15:28:53.737Z,29.04
2018-05-29T15:30:46.746Z,28.76
2018-05-29T15:31:46.817Z,28.69
2018-05-29T15:33:39.835Z,28.62
2018-05-29T15:34:39.900Z,28.63
2018-05-29T15:36:32.910Z,28.54
2018-05-29T15:37:32.979Z,28.57
2018-05-29T15:39:25.997Z,28.48
2018-05-29T15:40:26.058Z,28.44
2018-05-29T15:42:19.075Z,28.29
2018-05-29T15:43:19.140Z,28.10
2018-05-29T15:45:12.148Z,27.92
2018-05-29T15:46:12.217Z,27.85
2018-05-29T15:48:05.236Z,27.80
2018-05-29T15:49:05.299Z,27.73
2018-05-29T15:50:58.306Z,27.52
2018-05-29T15:51:58.380Z,27.58
2018-05-29T15:53:51.394Z,27.47
2018-05-29T15:54:51.454Z,27.36
2018-05-29T15:56:44.475Z,27.39
2018-05-29T15:57:44.536Z,27.30
2018-05-29T15:59:37.546Z,27.39
2018-05-29T16:00:37.607Z,27.35
2018-05-29T16:02:30.623Z,27.21
2018-05-29T16:03:30.689Z,27.20
2018-05-29T16:05:23.696Z,27.11
2018-05-29T16:06:23.762Z,27.11
2018-05-29T16:08:16.779Z,27.05
2018-05-29T16:09:16.841Z,27.21
2018-05-29T16:11:09.853Z,27.15
2018-05-29T16:12:09.919Z,27.26
2018-05-29T16:14:02.982Z,27.27
2018-05-29T16:15:02.997Z,27.30
2018-05-29T16:16:56.512Z,27.36
2018-05-29T16:17:56.576Z,27.40
2018-05-29T16:19:49.590Z,27.26
2018-05-29T16:20:49.653Z,27.14
2018-05-29T16:22:42.666Z,26.96
2018-05-29T16:23:42.734Z,26.92
2018-05-29T16:25:35.736Z,26.74
2018-05-29T16:26:35.814Z,26.80
2018-05-29T16:28:28.822Z,26.58
2018-05-29T16:29:28.883Z,26.51
2018-05-29T16:31:21.892Z,26.23
2018-05-29T16:32:21.959Z,26.28
2018-05-29T16:34:14.968Z,26.22
2018-05-29T16:35:15.034Z,25.96
2018-05-29T16:37:08.047Z,25.73
2018-05-29T16:38:08.110Z,25.65
2018-05-29T16:40:01.127Z,25.60
2018-05-29T16:41:01.192Z,25.63
2018-05-29T16:42:54.205Z,25.72
2018-05-29T16:43:54.269Z,25.70
2018-05-29T16:45:47.274Z,25.60
2018-05-29T16:46:47.341Z,25.68
2018-05-29T16:48:40.350Z,25.69
2018-05-29T16:49:40.412Z,25.62
2018-05-29T16:51:33.426Z,25.36
2018-05-29T16:52:33.496Z,25.22
2018-05-29T16:54:26.511Z,25.08
2018-05-29T16:55:26.573Z,25.07
2018-05-29T16:57:19.576Z,25.13
2018-05-29T16:58:19.648Z,25.25
2018-05-29T17:00:12.656Z,25.26
2018-05-29T17:01:12.722Z,25.23
2018-05-29T17:03:05.732Z,25.22
2018-05-29T17:04:05.795Z,25.18
2018-05-29T17:05:58.809Z,25.17
2018-05-29T17:06:58.872Z,25.28
2018-05-29T17:08:51.884Z,25.36
2018-05-29T17:09:51.948Z,25.28
2018-05-29T17:11:44.951Z,25.31
2018-05-29T17:12:45.021Z,25.29
2018-05-29T17:14:38.047Z,25.06
2018-05-29T17:15:38.113Z,24.93
2018-05-29T17:17:31.111Z,24.81
2018-05-29T17:18:31.181Z,24.86
2018-05-29T17:20:24.190Z,24.88
2018-05-29T17:21:24.253Z,24.88
2018-05-29T17:23:17.266Z,24.81
2018-05-29T17:24:17.331Z,24.78
2018-05-29T17:26:10.333Z,24.76
2018-05-29T17:27:10.399Z,24.86
2018-05-29T17:29:03.920Z,24.81
2018-05-29T17:30:03.980Z,24.77
2018-05-29T17:31:57.044Z,24.66
2018-05-29T17:32:57.064Z,24.60
2018-05-29T17:34:50.619Z,24.36
2018-05-29T17:35:50.642Z,24.24
2018-05-29T17:37:43.647Z,24.02
2018-05-29T17:38:43.722Z,24.11
2018-05-29T17:40:36.746Z,24.08
2018-05-29T17:41:36.797Z,24.18
2018-05-29T17:43:29.814Z,24.24
2018-05-29T17:44:29.878Z,24.14
2018-05-29T17:46:22.883Z,24.05
2018-05-29T17:47:22.951Z,24.01
2018-05-29T17:49:15.959Z,23.83
2018-05-29T17:50:16.021Z,23.77
2018-05-29T17:52:09.025Z,23.80
2018-05-29T17:53:09.099Z,23.76
2018-05-29T17:55:02.117Z,23.78
2018-05-29T17:56:02.169Z,23.78
2018-05-29T17:57:55.181Z,23.69
2018-05-29T17:58:55.243Z,23.63
2018-05-29T18:00:48.265Z,23.69
2018-05-29T18:01:48.324Z,23.73
2018-05-29T18:03:41.342Z,23.87
2018-05-29T18:04:41.486Z,23.95
2018-05-29T18:06:34.411Z,24.13
2018-05-29T18:07:34.472Z,24.16
2018-05-29T18:09:27.480Z,24.32
2018-05-29T18:10:27.541Z,24.33
2018-05-29T18:12:20.550Z,24.45
2018-05-29T18:13:20.675Z,24.47
2018-05-29T18:15:13.640Z,24.50
2018-05-29T18:16:13.696Z,24.51
2018-05-29T18:18:07.208Z,24.51
2018-05-29T18:19:07.278Z,24.53
2018-05-29T18:21:00.280Z,24.48
2018-05-29T18:22:00.351Z,24.54
2018-05-29T18:23:53.353Z,24.35
2018-05-29T18:24:53.416Z,24.35
2018-05-29T18:26:46.435Z,24.28
2018-05-29T18:27:46.487Z,24.23
2018-05-29T18:29:39.507Z,24.18
2018-05-29T18:30:39.553Z,24.03
2018-05-29T18:32:32.574Z,23.95
2018-05-29T18:33:32.634Z,23.92
2018-05-29T18:35:25.636Z,23.86